sensor_id;sensor_type;location;lat;lon;timestamp;temperature;humidity
12130;DHT22;6128;59.340;18.040;2023-04-24T00:01:13;8.60;99.90
12130;DHT22;6128;59.340;18.040;2023-04-24T00:03:40;8.50;99.90
12130;DHT22;6128;59.340;18.040;2023-04-24T00:06:08;8.50;99.90
12130;DHT22;6128;59.340;18.040;2023-04-24T00:08:35;8.50;99.90
12130;DHT22;6128;59.340;18.040;2023-04-24T00:11:02;8.40;99.90
12130;DHT22;6128;59.340;18.040;2023-04-24T00:13:30;8.40;99.90
12130;DHT22;6128;59.340;18.040;2023-04-24T00:15:58;8.30;99.90
12130;DHT22;6128;59.340;18.040;2023-04-24T00:18:25;8.30;99.90
12130;DHT22;6128;59.340;18.040;2023-04-24T00:20:53;8.30;99.90
12130;DHT22;6128;59.340;18.040;2023-04-24T00:23:20;8.30;99.90
12130;DHT22;6128;59.340;18.040;2023-04-24T00:25:47;8.30;99.90
12130;DHT22;6128;59.340;18.040;2023-04-24T00:28:14;8.30;99.90
12130;DHT22;6128;59.340;18.040;2023-04-24T00:30:41;8.30;99.90
12130;DHT22;6128;59.340;18.040;2023-04-24T00:33:09;8.20;99.90
12130;DHT22;6128;59.340;18.040;2023-04-24T00:35:36;8.20;99.90
12130;DHT22;6128;59.340;18.040;2023-04-24T00:38:03;8.20;99.90
12130;DHT22;6128;59.340;18.040;2023-04-24T00:40:31;8.20;99.90
12130;DHT22;6128;59.340;18.040;2023-04-24T00:42:58;8.20;99.90
12130;DHT22;6128;59.340;18.040;2023-04-24T00:45:26;8.20;99.90
12130;DHT22;6128;59.340;18.040;2023-04-24T00:47:53;8.20;99.90
12130;DHT22;6128;59.340;18.040;2023-04-24T00:50:21;8.30;99.90
12130;DHT22;6128;59.340;18.040;2023-04-24T00:52:48;8.30;99.90
12130;DHT22;6128;59.340;18.040;2023-04-24T00:55:16;8.30;99.90
12130;DHT22;6128;59.340;18.040;2023-04-24T00:57:44;8.30;99.90
12130;DHT22;6128;59.340;18.040;2023-04-24T01:00:12;8.30;99.90
12130;DHT22;6128;59.340;18.040;2023-04-24T01:02:41;8.30;99.90
12130;DHT22;6128;59.340;18.040;2023-04-24T01:05:11;8.20;99.90
12130;DHT22;6128;59.340;18.040;2023-04-24T01:07:41;8.20;99.90
12130;DHT22;6128;59.340;18.040;2023-04-24T01:10:11;8.20;99.90
12130;DHT22;6128;59.340;18.040;2023-04-24T01:12:39;8.20;99.90
12130;DHT22;6128;59.340;18.040;2023-04-24T01:15:08;8.20;99.90
12130;DHT22;6128;59.340;18.040;2023-04-24T01:17:35;8.20;99.90
12130;DHT22;6128;59.340;18.040;2023-04-24T01:20:03;8.20;99.90
12130;DHT22;6128;59.340;18.040;2023-04-24T01:22:33;8.20;99.90
12130;DHT22;6128;59.340;18.040;2023-04-24T01:25:01;8.20;99.90
12130;DHT22;6128;59.340;18.040;2023-04-24T01:27:28;8.20;99.90
12130;DHT22;6128;59.340;18.040;2023-04-24T01:29:55;8.20;99.90
12130;DHT22;6128;59.340;18.040;2023-04-24T01:32:22;8.10;99.90
12130;DHT22;6128;59.340;18.040;2023-04-24T01:34:50;8.10;99.90
12130;DHT22;6128;59.340;18.040;2023-04-24T01:37:18;8.00;99.90
12130;DHT22;6128;59.340;18.040;2023-04-24T01:39:46;8.00;99.90
12130;DHT22;6128;59.340;18.040;2023-04-24T01:42:13;8.00;99.90
12130;DHT22;6128;59.340;18.040;2023-04-24T01:44:41;8.00;99.90
12130;DHT22;6128;59.340;18.040;2023-04-24T01:47:09;8.00;99.90
12130;DHT22;6128;59.340;18.040;2023-04-24T01:49:37;8.00;99.90
12130;DHT22;6128;59.340;18.040;2023-04-24T01:52:04;8.00;99.90
12130;DHT22;6128;59.340;18.040;2023-04-24T01:54:32;7.90;99.90
12130;DHT22;6128;59.340;18.040;2023-04-24T01:57:00;7.90;99.90
12130;DHT22;6128;59.340;18.040;2023-04-24T01:59:28;7.90;99.90
12130;DHT22;6128;59.340;18.040;2023-04-24T02:01:56;7.90;99.90
12130;DHT22;6128;59.340;18.040;2023-04-24T02:04:23;7.80;99.90
12130;DHT22;6128;59.340;18.040;2023-04-24T02:06:51;7.80;99.90
12130;DHT22;6128;59.340;18.040;2023-04-24T02:09:17;7.70;99.90
12130;DHT22;6128;59.340;18.040;2023-04-24T02:11:45;7.70;99.90
12130;DHT22;6128;59.340;18.040;2023-04-24T02:14:13;7.60;99.90
12130;DHT22;6128;59.340;18.040;2023-04-24T02:16:40;7.50;99.90
12130;DHT22;6128;59.340;18.040;2023-04-24T02:19:08;7.40;99.90
12130;DHT22;6128;59.340;18.040;2023-04-24T02:21:35;7.30;99.90
12130;DHT22;6128;59.340;18.040;2023-04-24T02:24:02;7.10;99.90
12130;DHT22;6128;59.340;18.040;2023-04-24T02:26:29;6.90;99.90
12130;DHT22;6128;59.340;18.040;2023-04-24T02:28:57;6.80;99.90
12130;DHT22;6128;59.340;18.040;2023-04-24T02:31:25;6.60;99.90
12130;DHT22;6128;59.340;18.040;2023-04-24T02:33:52;6.50;99.90
12130;DHT22;6128;59.340;18.040;2023-04-24T02:36:19;6.50;99.90
12130;DHT22;6128;59.340;18.040;2023-04-24T02:38:47;6.50;99.90
12130;DHT22;6128;59.340;18.040;2023-04-24T02:41:14;6.50;99.90
12130;DHT22;6128;59.340;18.040;2023-04-24T02:43:41;6.50;99.90
12130;DHT22;6128;59.340;18.040;2023-04-24T02:46:08;6.70;99.90
12130;DHT22;6128;59.340;18.040;2023-04-24T02:48:37;6.70;99.90
12130;DHT22;6128;59.340;18.040;2023-04-24T02:51:04;6.70;99.90
12130;DHT22;6128;59.340;18.040;2023-04-24T02:53:32;6.80;99.90
12130;DHT22;6128;59.340;18.040;2023-04-24T02:55:59;6.70;99.90
12130;DHT22;6128;59.340;18.040;2023-04-24T02:58:26;6.60;99.90
12130;DHT22;6128;59.340;18.040;2023-04-24T03:00:54;6.60;99.90
12130;DHT22;6128;59.340;18.040;2023-04-24T03:03:22;6.60;99.90
12130;DHT22;6128;59.340;18.040;2023-04-24T03:05:50;6.70;99.90
12130;DHT22;6128;59.340;18.040;2023-04-24T03:08:18;6.60;99.90
12130;DHT22;6128;59.340;18.040;2023-04-24T03:10:45;6.60;99.90
12130;DHT22;6128;59.340;18.040;2023-04-24T03:13:12;6.50;99.90
12130;DHT22;6128;59.340;18.040;2023-04-24T03:15:39;6.30;99.90
12130;DHT22;6128;59.340;18.040;2023-04-24T03:18:06;6.20;99.90
12130;DHT22;6128;59.340;18.040;2023-04-24T03:20:33;6.30;99.90
12130;DHT22;6128;59.340;18.040;2023-04-24T03:23:03;6.20;99.90
12130;DHT22;6128;59.340;18.040;2023-04-24T03:25:31;6.00;99.90
12130;DHT22;6128;59.340;18.040;2023-04-24T03:27:58;5.90;99.90
12130;DHT22;6128;59.340;18.040;2023-04-24T03:30:25;5.90;99.90
12130;DHT22;6128;59.340;18.040;2023-04-24T03:32:52;5.80;99.90
12130;DHT22;6128;59.340;18.040;2023-04-24T03:35:19;5.80;99.90
12130;DHT22;6128;59.340;18.040;2023-04-24T03:37:47;5.80;99.90
12130;DHT22;6128;59.340;18.040;2023-04-24T03:40:16;5.80;99.90
12130;DHT22;6128;59.340;18.040;2023-04-24T03:42:43;5.90;99.90
12130;DHT22;6128;59.340;18.040;2023-04-24T03:45:10;6.00;99.90
12130;DHT22;6128;59.340;18.040;2023-04-24T03:47:37;6.10;99.90
12130;DHT22;6128;59.340;18.040;2023-04-24T03:50:05;6.10;99.90
12130;DHT22;6128;59.340;18.040;2023-04-24T03:52:33;6.00;99.90
12130;DHT22;6128;59.340;18.040;2023-04-24T03:55:00;6.10;99.90
12130;DHT22;6128;59.340;18.040;2023-04-24T03:57:28;6.10;99.90
12130;DHT22;6128;59.340;18.040;2023-04-24T03:59:55;6.10;99.90
12130;DHT22;6128;59.340;18.040;2023-04-24T04:02:22;6.00;99.90
12130;DHT22;6128;59.340;18.040;2023-04-24T04:04:49;5.90;99.90
12130;DHT22;6128;59.340;18.040;2023-04-24T04:07:16;5.90;99.90
12130;DHT22;6128;59.340;18.040;2023-04-24T04:09:43;5.90;99.90
12130;DHT22;6128;59.340;18.040;2023-04-24T04:12:10;6.00;99.90
12130;DHT22;6128;59.340;18.040;2023-04-24T04:14:39;6.00;99.90
12130;DHT22;6128;59.340;18.040;2023-04-24T04:17:06;5.90;99.90
12130;DHT22;6128;59.340;18.040;2023-04-24T04:19:33;5.80;99.90
12130;DHT22;6128;59.340;18.040;2023-04-24T04:22:01;5.80;99.90
12130;DHT22;6128;59.340;18.040;2023-04-24T04:24:28;5.90;99.90
12130;DHT22;6128;59.340;18.040;2023-04-24T04:26:55;5.80;99.90
12130;DHT22;6128;59.340;18.040;2023-04-24T04:29:23;5.70;99.90
12130;DHT22;6128;59.340;18.040;2023-04-24T04:31:52;5.60;99.90
12130;DHT22;6128;59.340;18.040;2023-04-24T04:34:20;5.70;99.90
12130;DHT22;6128;59.340;18.040;2023-04-24T04:36:48;5.80;99.90
12130;DHT22;6128;59.340;18.040;2023-04-24T04:39:16;5.90;99.90
12130;DHT22;6128;59.340;18.040;2023-04-24T04:41:44;5.90;99.90
12130;DHT22;6128;59.340;18.040;2023-04-24T04:44:12;5.80;99.90
12130;DHT22;6128;59.340;18.040;2023-04-24T04:46:39;5.90;99.90
12130;DHT22;6128;59.340;18.040;2023-04-24T04:49:08;6.10;99.90
12130;DHT22;6128;59.340;18.040;2023-04-24T04:51:36;6.20;99.90
12130;DHT22;6128;59.340;18.040;2023-04-24T04:54:04;6.20;99.90
12130;DHT22;6128;59.340;18.040;2023-04-24T04:56:31;6.10;99.90
12130;DHT22;6128;59.340;18.040;2023-04-24T04:58:58;6.20;99.90
12130;DHT22;6128;59.340;18.040;2023-04-24T05:01:25;6.10;99.90
12130;DHT22;6128;59.340;18.040;2023-04-24T05:03:53;6.00;99.90
12130;DHT22;6128;59.340;18.040;2023-04-24T05:06:21;5.80;99.90
12130;DHT22;6128;59.340;18.040;2023-04-24T05:08:49;5.80;99.90
12130;DHT22;6128;59.340;18.040;2023-04-24T05:11:17;5.80;99.90
12130;DHT22;6128;59.340;18.040;2023-04-24T05:13:44;5.80;99.90
12130;DHT22;6128;59.340;18.040;2023-04-24T05:16:11;5.90;99.90
12130;DHT22;6128;59.340;18.040;2023-04-24T05:18:38;5.90;99.90
12130;DHT22;6128;59.340;18.040;2023-04-24T05:21:05;5.80;99.90
12130;DHT22;6128;59.340;18.040;2023-04-24T05:23:34;5.90;99.90
12130;DHT22;6128;59.340;18.040;2023-04-24T05:26:01;6.00;99.90
12130;DHT22;6128;59.340;18.040;2023-04-24T05:28:28;6.00;99.90
12130;DHT22;6128;59.340;18.040;2023-04-24T05:30:55;5.80;99.90
12130;DHT22;6128;59.340;18.040;2023-04-24T05:33:22;5.90;99.90
12130;DHT22;6128;59.340;18.040;2023-04-24T05:35:50;5.80;99.90
12130;DHT22;6128;59.340;18.040;2023-04-24T05:38:17;5.70;99.90
12130;DHT22;6128;59.340;18.040;2023-04-24T05:40:46;5.60;99.90
12130;DHT22;6128;59.340;18.040;2023-04-24T05:43:13;5.60;99.90
12130;DHT22;6128;59.340;18.040;2023-04-24T05:45:40;5.60;99.90
12130;DHT22;6128;59.340;18.040;2023-04-24T05:48:07;5.60;99.90
12130;DHT22;6128;59.340;18.040;2023-04-24T05:50:34;5.60;99.90
12130;DHT22;6128;59.340;18.040;2023-04-24T05:53:01;5.60;99.90
12130;DHT22;6128;59.340;18.040;2023-04-24T05:55:29;5.60;99.90
12130;DHT22;6128;59.340;18.040;2023-04-24T05:57:58;5.60;99.90
12130;DHT22;6128;59.340;18.040;2023-04-24T06:00:25;5.60;99.90
12130;DHT22;6128;59.340;18.040;2023-04-24T06:02:52;5.50;99.90
12130;DHT22;6128;59.340;18.040;2023-04-24T06:05:20;5.40;99.90
12130;DHT22;6128;59.340;18.040;2023-04-24T06:07:47;5.40;99.90
12130;DHT22;6128;59.340;18.040;2023-04-24T06:10:14;5.30;99.90
12130;DHT22;6128;59.340;18.040;2023-04-24T06:12:42;5.30;99.90
12130;DHT22;6128;59.340;18.040;2023-04-24T06:15:11;5.20;99.90
12130;DHT22;6128;59.340;18.040;2023-04-24T06:17:38;5.30;99.90
12130;DHT22;6128;59.340;18.040;2023-04-24T06:20:06;5.30;99.90
12130;DHT22;6128;59.340;18.040;2023-04-24T06:22:33;5.50;99.90
12130;DHT22;6128;59.340;18.040;2023-04-24T06:25:01;5.60;99.90
12130;DHT22;6128;59.340;18.040;2023-04-24T06:27:28;5.60;99.90
12130;DHT22;6128;59.340;18.040;2023-04-24T06:29:55;5.60;99.90
12130;DHT22;6128;59.340;18.040;2023-04-24T06:32:24;5.50;99.90
12130;DHT22;6128;59.340;18.040;2023-04-24T06:34:53;5.40;99.90
12130;DHT22;6128;59.340;18.040;2023-04-24T06:37:20;5.60;99.90
12130;DHT22;6128;59.340;18.040;2023-04-24T06:39:47;5.60;99.90
12130;DHT22;6128;59.340;18.040;2023-04-24T06:42:14;5.70;99.90
12130;DHT22;6128;59.340;18.040;2023-04-24T06:44:41;5.60;99.90
12130;DHT22;6128;59.340;18.040;2023-04-24T06:47:08;5.70;99.90
12130;DHT22;6128;59.340;18.040;2023-04-24T06:49:37;5.40;99.90
12130;DHT22;6128;59.340;18.040;2023-04-24T06:52:05;5.30;99.90
12130;DHT22;6128;59.340;18.040;2023-04-24T06:54:32;5.40;99.90
12130;DHT22;6128;59.340;18.040;2023-04-24T06:57:00;5.40;99.90
12130;DHT22;6128;59.340;18.040;2023-04-24T06:59:28;5.30;99.90
12130;DHT22;6128;59.340;18.040;2023-04-24T07:01:55;5.30;99.90
12130;DHT22;6128;59.340;18.040;2023-04-24T07:04:22;5.30;99.90
12130;DHT22;6128;59.340;18.040;2023-04-24T07:06:52;5.30;99.90
12130;DHT22;6128;59.340;18.040;2023-04-24T07:09:21;5.30;99.90
12130;DHT22;6128;59.340;18.040;2023-04-24T07:11:49;5.30;99.90
12130;DHT22;6128;59.340;18.040;2023-04-24T07:14:17;5.30;99.90
12130;DHT22;6128;59.340;18.040;2023-04-24T07:16:44;5.30;99.90
12130;DHT22;6128;59.340;18.040;2023-04-24T07:19:12;5.20;99.90
12130;DHT22;6128;59.340;18.040;2023-04-24T07:21:39;5.20;99.90
12130;DHT22;6128;59.340;18.040;2023-04-24T07:24:07;5.20;99.90
12130;DHT22;6128;59.340;18.040;2023-04-24T07:26:37;5.30;99.90
12130;DHT22;6128;59.340;18.040;2023-04-24T07:29:05;5.40;99.90
12130;DHT22;6128;59.340;18.040;2023-04-24T07:31:32;5.50;99.90
12130;DHT22;6128;59.340;18.040;2023-04-24T07:34:00;5.60;99.90
12130;DHT22;6128;59.340;18.040;2023-04-24T07:36:27;5.70;99.90
12130;DHT22;6128;59.340;18.040;2023-04-24T07:38:54;5.70;99.90
12130;DHT22;6128;59.340;18.040;2023-04-24T07:41:24;5.50;99.90
12130;DHT22;6128;59.340;18.040;2023-04-24T07:43:53;5.60;99.90
12130;DHT22;6128;59.340;18.040;2023-04-24T07:46:20;5.60;99.90
12130;DHT22;6128;59.340;18.040;2023-04-24T07:48:49;5.70;99.90
12130;DHT22;6128;59.340;18.040;2023-04-24T07:51:17;5.70;99.90
12130;DHT22;6128;59.340;18.040;2023-04-24T07:53:44;5.70;99.90
12130;DHT22;6128;59.340;18.040;2023-04-24T07:56:11;5.70;99.90
12130;DHT22;6128;59.340;18.040;2023-04-24T07:58:39;5.80;99.90
12130;DHT22;6128;59.340;18.040;2023-04-24T08:01:07;5.70;99.90
12130;DHT22;6128;59.340;18.040;2023-04-24T08:03:34;5.80;99.90
12130;DHT22;6128;59.340;18.040;2023-04-24T08:06:01;6.00;99.90
12130;DHT22;6128;59.340;18.040;2023-04-24T08:08:28;6.00;99.90
12130;DHT22;6128;59.340;18.040;2023-04-24T08:10:55;6.00;99.90
12130;DHT22;6128;59.340;18.040;2023-04-24T08:13:22;6.10;99.90
12130;DHT22;6128;59.340;18.040;2023-04-24T08:15:51;6.20;99.90
12130;DHT22;6128;59.340;18.040;2023-04-24T08:18:18;6.10;99.90
12130;DHT22;6128;59.340;18.040;2023-04-24T08:20:45;6.10;99.90
12130;DHT22;6128;59.340;18.040;2023-04-24T08:23:12;6.00;99.90
12130;DHT22;6128;59.340;18.040;2023-04-24T08:25:40;6.10;99.90
12130;DHT22;6128;59.340;18.040;2023-04-24T08:28:09;6.30;99.90
12130;DHT22;6128;59.340;18.040;2023-04-24T08:30:36;6.20;99.90
12130;DHT22;6128;59.340;18.040;2023-04-24T08:33:06;6.20;99.90
12130;DHT22;6128;59.340;18.040;2023-04-24T08:35:33;6.30;99.90
12130;DHT22;6128;59.340;18.040;2023-04-24T08:38:00;6.40;99.90
12130;DHT22;6128;59.340;18.040;2023-04-24T08:40:29;6.40;99.90
12130;DHT22;6128;59.340;18.040;2023-04-24T08:42:59;6.50;99.90
12130;DHT22;6128;59.340;18.040;2023-04-24T08:45:27;6.50;99.90
12130;DHT22;6128;59.340;18.040;2023-04-24T08:47:54;6.60;99.90
12130;DHT22;6128;59.340;18.040;2023-04-24T08:50:23;6.70;99.90
12130;DHT22;6128;59.340;18.040;2023-04-24T08:52:51;6.70;99.90
12130;DHT22;6128;59.340;18.040;2023-04-24T08:55:19;6.70;99.90
12130;DHT22;6128;59.340;18.040;2023-04-24T08:57:50;6.70;99.90
12130;DHT22;6128;59.340;18.040;2023-04-24T09:00:19;6.70;99.90
12130;DHT22;6128;59.340;18.040;2023-04-24T09:02:49;6.70;99.90
12130;DHT22;6128;59.340;18.040;2023-04-24T09:05:17;6.70;99.90
12130;DHT22;6128;59.340;18.040;2023-04-24T09:07:50;6.70;99.90
12130;DHT22;6128;59.340;18.040;2023-04-24T09:10:20;6.50;99.90
12130;DHT22;6128;59.340;18.040;2023-04-24T09:12:48;6.60;99.90
12130;DHT22;6128;59.340;18.040;2023-04-24T09:15:17;6.50;99.90
12130;DHT22;6128;59.340;18.040;2023-04-24T09:17:44;6.50;99.90
12130;DHT22;6128;59.340;18.040;2023-04-24T09:20:11;6.40;99.90
12130;DHT22;6128;59.340;18.040;2023-04-24T09:22:38;6.40;99.90
12130;DHT22;6128;59.340;18.040;2023-04-24T09:25:09;6.50;99.90
12130;DHT22;6128;59.340;18.040;2023-04-24T09:27:41;6.60;99.90
12130;DHT22;6128;59.340;18.040;2023-04-24T09:30:10;6.60;99.90
12130;DHT22;6128;59.340;18.040;2023-04-24T09:32:37;6.40;99.90
12130;DHT22;6128;59.340;18.040;2023-04-24T09:35:11;6.30;99.90
12130;DHT22;6128;59.340;18.040;2023-04-24T09:37:40;6.30;99.90
12130;DHT22;6128;59.340;18.040;2023-04-24T09:40:15;6.40;99.90
12130;DHT22;6128;59.340;18.040;2023-04-24T09:42:46;6.50;99.90
12130;DHT22;6128;59.340;18.040;2023-04-24T09:45:18;6.50;99.90
12130;DHT22;6128;59.340;18.040;2023-04-24T09:47:45;6.40;99.90
12130;DHT22;6128;59.340;18.040;2023-04-24T09:50:14;6.50;99.90
12130;DHT22;6128;59.340;18.040;2023-04-24T09:52:43;6.70;99.90
12130;DHT22;6128;59.340;18.040;2023-04-24T09:55:13;6.80;99.90
12130;DHT22;6128;59.340;18.040;2023-04-24T09:57:49;6.80;99.90
12130;DHT22;6128;59.340;18.040;2023-04-24T10:00:23;6.80;99.90
12130;DHT22;6128;59.340;18.040;2023-04-24T10:02:58;6.90;99.90
12130;DHT22;6128;59.340;18.040;2023-04-24T10:05:27;6.80;99.90
12130;DHT22;6128;59.340;18.040;2023-04-24T10:08:00;6.90;99.90
12130;DHT22;6128;59.340;18.040;2023-04-24T10:10:29;6.90;99.90
12130;DHT22;6128;59.340;18.040;2023-04-24T10:12:56;6.80;99.90
12130;DHT22;6128;59.340;18.040;2023-04-24T10:15:24;6.60;99.90
12130;DHT22;6128;59.340;18.040;2023-04-24T10:17:52;6.60;99.90
12130;DHT22;6128;59.340;18.040;2023-04-24T10:20:21;6.50;99.90
12130;DHT22;6128;59.340;18.040;2023-04-24T10:22:50;6.70;99.90
12130;DHT22;6128;59.340;18.040;2023-04-24T10:25:19;6.80;99.90
12130;DHT22;6128;59.340;18.040;2023-04-24T10:27:51;6.90;99.90
12130;DHT22;6128;59.340;18.040;2023-04-24T10:30:19;7.00;99.90
12130;DHT22;6128;59.340;18.040;2023-04-24T10:32:46;7.00;99.90
12130;DHT22;6128;59.340;18.040;2023-04-24T10:35:14;7.00;99.90
12130;DHT22;6128;59.340;18.040;2023-04-24T10:37:44;6.90;99.90
12130;DHT22;6128;59.340;18.040;2023-04-24T10:40:17;6.80;99.90
12130;DHT22;6128;59.340;18.040;2023-04-24T10:42:49;6.90;99.90
12130;DHT22;6128;59.340;18.040;2023-04-24T10:45:19;7.00;99.90
12130;DHT22;6128;59.340;18.040;2023-04-24T10:47:57;7.00;99.90
12130;DHT22;6128;59.340;18.040;2023-04-24T10:50:27;7.00;99.90
12130;DHT22;6128;59.340;18.040;2023-04-24T10:53:05;7.00;99.90
12130;DHT22;6128;59.340;18.040;2023-04-24T10:55:43;6.80;99.90
12130;DHT22;6128;59.340;18.040;2023-04-24T10:58:13;6.80;99.90
12130;DHT22;6128;59.340;18.040;2023-04-24T11:00:41;6.80;99.90
12130;DHT22;6128;59.340;18.040;2023-04-24T11:03:23;6.90;99.90
12130;DHT22;6128;59.340;18.040;2023-04-24T11:05:53;7.00;99.90
12130;DHT22;6128;59.340;18.040;2023-04-24T11:08:24;6.90;99.90
12130;DHT22;6128;59.340;18.040;2023-04-24T11:10:58;7.00;99.90
12130;DHT22;6128;59.340;18.040;2023-04-24T11:13:31;7.00;99.90
12130;DHT22;6128;59.340;18.040;2023-04-24T11:16:21;7.00;99.90
12130;DHT22;6128;59.340;18.040;2023-04-24T11:18:51;7.00;99.90
12130;DHT22;6128;59.340;18.040;2023-04-24T11:21:20;7.00;99.90
12130;DHT22;6128;59.340;18.040;2023-04-24T11:23:48;6.90;99.90
12130;DHT22;6128;59.340;18.040;2023-04-24T11:26:19;6.90;99.90
12130;DHT22;6128;59.340;18.040;2023-04-24T11:28:51;6.90;99.90
12130;DHT22;6128;59.340;18.040;2023-04-24T11:31:37;6.90;99.90
12130;DHT22;6128;59.340;18.040;2023-04-24T11:34:09;6.90;99.90
12130;DHT22;6128;59.340;18.040;2023-04-24T11:36:36;6.90;99.90
12130;DHT22;6128;59.340;18.040;2023-04-24T11:39:04;6.90;99.90
12130;DHT22;6128;59.340;18.040;2023-04-24T11:41:31;6.70;99.90
12130;DHT22;6128;59.340;18.040;2023-04-24T11:44:00;6.80;99.90
12130;DHT22;6128;59.340;18.040;2023-04-24T11:46:28;6.80;99.90
12130;DHT22;6128;59.340;18.040;2023-04-24T11:48:56;6.80;99.90
12130;DHT22;6128;59.340;18.040;2023-04-24T11:51:23;6.90;99.90
12130;DHT22;6128;59.340;18.040;2023-04-24T11:53:51;6.90;99.90
12130;DHT22;6128;59.340;18.040;2023-04-24T11:56:18;7.00;99.90
12130;DHT22;6128;59.340;18.040;2023-04-24T11:58:46;6.90;99.90
12130;DHT22;6128;59.340;18.040;2023-04-24T12:01:15;6.80;99.90
12130;DHT22;6128;59.340;18.040;2023-04-24T12:03:47;6.80;99.90
12130;DHT22;6128;59.340;18.040;2023-04-24T12:06:14;6.80;99.90
12130;DHT22;6128;59.340;18.040;2023-04-24T12:08:42;6.80;99.90
12130;DHT22;6128;59.340;18.040;2023-04-24T12:11:15;6.90;99.90
12130;DHT22;6128;59.340;18.040;2023-04-24T12:13:43;6.80;99.90
12130;DHT22;6128;59.340;18.040;2023-04-24T12:16:11;6.70;99.90
12130;DHT22;6128;59.340;18.040;2023-04-24T12:18:44;6.70;99.90
12130;DHT22;6128;59.340;18.040;2023-04-24T12:21:18;6.60;99.90
12130;DHT22;6128;59.340;18.040;2023-04-24T12:23:46;6.60;99.90
12130;DHT22;6128;59.340;18.040;2023-04-24T12:26:16;6.50;99.90
12130;DHT22;6128;59.340;18.040;2023-04-24T12:28:46;6.50;99.90
12130;DHT22;6128;59.340;18.040;2023-04-24T12:31:14;6.60;99.90
12130;DHT22;6128;59.340;18.040;2023-04-24T12:33:43;6.60;99.90
12130;DHT22;6128;59.340;18.040;2023-04-24T12:36:11;6.60;99.90
12130;DHT22;6128;59.340;18.040;2023-04-24T12:38:39;6.60;99.90
12130;DHT22;6128;59.340;18.040;2023-04-24T12:41:12;6.70;99.90
12130;DHT22;6128;59.340;18.040;2023-04-24T12:43:51;6.70;99.90
12130;DHT22;6128;59.340;18.040;2023-04-24T12:46:18;6.90;99.90
12130;DHT22;6128;59.340;18.040;2023-04-24T12:48:47;6.90;99.90
12130;DHT22;6128;59.340;18.040;2023-04-24T12:51:14;6.90;99.90
12130;DHT22;6128;59.340;18.040;2023-04-24T12:53:43;7.00;99.90
12130;DHT22;6128;59.340;18.040;2023-04-24T12:56:10;7.00;99.90
12130;DHT22;6128;59.340;18.040;2023-04-24T12:58:37;6.90;99.90
12130;DHT22;6128;59.340;18.040;2023-04-24T13:01:04;6.90;99.90
12130;DHT22;6128;59.340;18.040;2023-04-24T13:03:31;6.70;99.90
12130;DHT22;6128;59.340;18.040;2023-04-24T13:06:00;6.50;99.90
12130;DHT22;6128;59.340;18.040;2023-04-24T13:08:27;6.60;99.90
12130;DHT22;6128;59.340;18.040;2023-04-24T13:10:54;6.80;99.90
12130;DHT22;6128;59.340;18.040;2023-04-24T13:13:21;6.60;99.90
12130;DHT22;6128;59.340;18.040;2023-04-24T13:15:48;6.50;99.90
12130;DHT22;6128;59.340;18.040;2023-04-24T13:18:15;6.50;99.90
12130;DHT22;6128;59.340;18.040;2023-04-24T13:20:43;6.60;99.90
12130;DHT22;6128;59.340;18.040;2023-04-24T13:23:12;6.40;99.90
12130;DHT22;6128;59.340;18.040;2023-04-24T13:25:40;6.30;99.90
12130;DHT22;6128;59.340;18.040;2023-04-24T13:28:08;6.40;99.90
12130;DHT22;6128;59.340;18.040;2023-04-24T13:30:35;6.30;99.90
12130;DHT22;6128;59.340;18.040;2023-04-24T13:33:02;6.20;99.90
12130;DHT22;6128;59.340;18.040;2023-04-24T13:35:29;6.20;99.90
12130;DHT22;6128;59.340;18.040;2023-04-24T13:37:57;6.10;99.90
12130;DHT22;6128;59.340;18.040;2023-04-24T13:40:27;6.10;99.90
12130;DHT22;6128;59.340;18.040;2023-04-24T13:42:54;6.00;99.90
12130;DHT22;6128;59.340;18.040;2023-04-24T13:45:21;6.10;99.90
12130;DHT22;6128;59.340;18.040;2023-04-24T13:47:48;6.10;99.90
12130;DHT22;6128;59.340;18.040;2023-04-24T13:50:15;6.20;99.90
12130;DHT22;6128;59.340;18.040;2023-04-24T13:52:42;6.30;99.90
12130;DHT22;6128;59.340;18.040;2023-04-24T13:55:10;6.30;99.90
12130;DHT22;6128;59.340;18.040;2023-04-24T13:57:38;6.20;99.90
12130;DHT22;6128;59.340;18.040;2023-04-24T14:00:07;6.10;99.90
12130;DHT22;6128;59.340;18.040;2023-04-24T14:02:36;5.90;99.90
12130;DHT22;6128;59.340;18.040;2023-04-24T14:05:04;5.90;99.90
12130;DHT22;6128;59.340;18.040;2023-04-24T14:07:32;6.00;99.90
12130;DHT22;6128;59.340;18.040;2023-04-24T14:09:59;6.00;99.90
12130;DHT22;6128;59.340;18.040;2023-04-24T14:12:27;6.00;99.90
12130;DHT22;6128;59.340;18.040;2023-04-24T14:14:55;6.10;99.90
12130;DHT22;6128;59.340;18.040;2023-04-24T14:17:23;6.00;99.90
12130;DHT22;6128;59.340;18.040;2023-04-24T14:19:50;6.10;99.90
12130;DHT22;6128;59.340;18.040;2023-04-24T14:22:18;6.10;99.90
12130;DHT22;6128;59.340;18.040;2023-04-24T14:24:45;6.10;99.90
12130;DHT22;6128;59.340;18.040;2023-04-24T14:27:13;6.20;99.90
12130;DHT22;6128;59.340;18.040;2023-04-24T14:29:40;6.20;99.90
12130;DHT22;6128;59.340;18.040;2023-04-24T14:32:08;5.90;99.90
12130;DHT22;6128;59.340;18.040;2023-04-24T14:34:35;5.80;99.90
12130;DHT22;6128;59.340;18.040;2023-04-24T14:37:03;5.70;99.90
12130;DHT22;6128;59.340;18.040;2023-04-24T14:39:30;5.80;99.90
12130;DHT22;6128;59.340;18.040;2023-04-24T14:41:57;5.70;99.90
12130;DHT22;6128;59.340;18.040;2023-04-24T14:44:25;5.70;99.90
12130;DHT22;6128;59.340;18.040;2023-04-24T14:46:52;5.50;99.90
12130;DHT22;6128;59.340;18.040;2023-04-24T14:49:21;5.30;99.90
12130;DHT22;6128;59.340;18.040;2023-04-24T14:51:48;5.20;99.90
12130;DHT22;6128;59.340;18.040;2023-04-24T14:54:21;5.30;99.90
12130;DHT22;6128;59.340;18.040;2023-04-24T14:56:48;5.30;99.90
12130;DHT22;6128;59.340;18.040;2023-04-24T14:59:16;5.30;99.90
12130;DHT22;6128;59.340;18.040;2023-04-24T15:01:43;5.30;99.90
12130;DHT22;6128;59.340;18.040;2023-04-24T15:04:10;5.40;99.90
12130;DHT22;6128;59.340;18.040;2023-04-24T15:06:39;5.50;99.90
12130;DHT22;6128;59.340;18.040;2023-04-24T15:09:06;5.60;99.90
12130;DHT22;6128;59.340;18.040;2023-04-24T15:11:33;5.60;99.90
12130;DHT22;6128;59.340;18.040;2023-04-24T15:14:02;5.60;99.90
12130;DHT22;6128;59.340;18.040;2023-04-24T15:16:33;5.70;99.90
12130;DHT22;6128;59.340;18.040;2023-04-24T15:19:03;5.60;99.90
12130;DHT22;6128;59.340;18.040;2023-04-24T15:21:31;5.50;99.90
12130;DHT22;6128;59.340;18.040;2023-04-24T15:24:00;5.40;99.90
12130;DHT22;6128;59.340;18.040;2023-04-24T15:26:27;5.40;99.90
12130;DHT22;6128;59.340;18.040;2023-04-24T15:28:56;5.30;99.90
12130;DHT22;6128;59.340;18.040;2023-04-24T15:31:26;5.30;99.90
12130;DHT22;6128;59.340;18.040;2023-04-24T15:33:54;5.30;99.90
12130;DHT22;6128;59.340;18.040;2023-04-24T15:36:22;5.30;99.90
12130;DHT22;6128;59.340;18.040;2023-04-24T15:38:49;5.30;99.90
12130;DHT22;6128;59.340;18.040;2023-04-24T15:41:18;5.30;99.90
12130;DHT22;6128;59.340;18.040;2023-04-24T15:43:45;5.30;99.90
12130;DHT22;6128;59.340;18.040;2023-04-24T15:46:12;5.30;99.90
12130;DHT22;6128;59.340;18.040;2023-04-24T15:48:39;5.20;99.90
12130;DHT22;6128;59.340;18.040;2023-04-24T15:51:09;5.20;99.90